createdAt,value
2022-10-29T00:04:45.988Z,4.67
2022-10-29T00:09:49.080Z,4.80
2022-10-29T00:14:53.984Z,5.03
2022-10-29T00:19:56.951Z,6.07
2022-10-29T00:25:00.494Z,4.73
2022-10-29T00:30:05.361Z,4.03
2022-10-29T00:35:08.788Z,4.90
2022-10-29T00:40:13.253Z,4.00
2022-10-29T00:45:22.489Z,3.97
2022-10-29T00:50:26.003Z,9.23
2022-10-29T00:55:29.470Z,7.90
2022-10-29T01:00:33.828Z,8.77
2022-10-29T01:05:37.590Z,7.87
2022-10-29T01:10:55.460Z,6.83
2022-10-29T01:16:07.716Z,6.87
2022-10-29T01:21:38.142Z,4.80
2022-10-29T01:27:21.680Z,4.57
2022-10-29T01:32:32.250Z,4.53
2022-10-29T01:37:43.201Z,4.77
2022-10-29T01:42:50.656Z,4.50
2022-10-29T01:47:59.310Z,5.07
2022-10-29T01:53:04.884Z,5.00
2022-10-29T01:58:08.787Z,7.77
2022-10-29T02:03:26.001Z,5.87
2022-10-29T02:08:37.679Z,5.30
2022-10-29T02:13:46.928Z,4.70
2022-10-29T02:18:53.513Z,5.30
2022-10-29T02:23:56.465Z,11.43
2022-10-29T02:29:00.132Z,18.73
2022-10-29T02:34:04.650Z,15.47
2022-10-29T02:39:07.656Z,7.17
2022-10-29T02:44:10.584Z,6.80
2022-10-29T02:49:14.957Z,6.40
2022-10-29T02:54:20.489Z,5.40
2022-10-29T02:59:23.691Z,5.07
2022-10-29T03:04:28.298Z,6.10
2022-10-29T03:09:31.275Z,4.73
2022-10-29T03:14:34.359Z,4.97
2022-10-29T03:19:38.760Z,5.27
2022-10-29T03:24:41.732Z,4.97
2022-10-29T03:29:44.707Z,6.03
2022-10-29T03:34:49.098Z,5.80
2022-10-29T03:39:52.000Z,6.53
2022-10-29T03:44:54.964Z,6.93
2022-10-29T03:49:59.425Z,6.30
2022-10-29T03:55:02.476Z,6.00
2022-10-29T04:00:06.277Z,6.10
2022-10-29T04:05:17.246Z,6.63
2022-10-29T04:10:20.308Z,5.87
2022-10-29T04:15:23.495Z,6.50
2022-10-29T04:20:57.001Z,6.40
2022-10-29T04:31:20.784Z,8.27
2022-10-29T04:36:25.310Z,8.13
2022-10-29T04:41:28.375Z,8.03
2022-10-29T04:46:31.368Z,8.67
2022-10-29T04:51:35.832Z,6.90
2022-10-29T04:56:38.848Z,8.60
2022-10-29T05:01:41.841Z,7.80
2022-10-29T05:06:46.561Z,7.73
2022-10-29T05:11:49.593Z,7.13
2022-10-29T05:16:52.783Z,8.10
2022-10-29T05:21:57.356Z,7.60
2022-10-29T05:27:00.365Z,9.20
2022-10-29T05:32:03.420Z,11.30
2022-10-29T05:37:07.680Z,10.37
2022-10-29T05:42:10.600Z,9.60
2022-10-29T05:47:13.599Z,10.83
2022-10-29T05:52:18.043Z,9.13
2022-10-29T05:57:21.258Z,9.33
2022-10-29T06:02:24.442Z,8.47
2022-10-29T06:07:28.929Z,11.47
2022-10-29T06:12:34.876Z,12.30
2022-10-29T06:17:41.847Z,10.07
2022-10-29T06:22:46.228Z,10.53
2022-10-29T06:27:49.395Z,10.43
2022-10-29T06:32:52.542Z,9.70
2022-10-29T06:37:57.259Z,10.43
2022-10-29T06:43:00.949Z,10.60
2022-10-29T06:48:05.154Z,9.90
2022-10-29T06:53:13.312Z,10.77
2022-10-29T06:58:18.561Z,9.50
2022-10-29T07:03:23.155Z,8.93
2022-10-29T07:08:28.922Z,10.53
2022-10-29T07:13:31.932Z,9.37
2022-10-29T07:18:35.356Z,10.17
2022-10-29T07:23:39.685Z,10.67
2022-10-29T07:28:42.963Z,11.57
2022-10-29T07:46:18.683Z,12.40
2022-10-29T07:51:21.682Z,11.53
2022-10-29T07:56:26.068Z,10.83
2022-10-29T08:01:29.132Z,10.40
2022-10-29T08:06:32.414Z,10.80
2022-10-29T08:11:36.932Z,11.73
2022-10-29T08:16:40.373Z,11.23
2022-10-29T08:21:43.626Z,10.57
2022-10-29T08:26:48.135Z,10.85
2022-10-29T08:31:51.163Z,11.82
2022-10-29T08:36:54.103Z,11.27
2022-10-29T08:42:11.242Z,11.45
2022-10-29T08:47:19.218Z,9.40
2022-10-29T08:52:35.410Z,8.90
2022-10-29T08:57:45.324Z,9.23
2022-10-29T09:02:48.525Z,8.95
2022-10-29T09:08:08.520Z,8.93
2022-10-29T09:13:40.150Z,9.10
2022-10-29T09:19:01.604Z,8.23
2022-10-29T09:24:16.253Z,8.63
2022-10-29T09:29:37.616Z,8.75
2022-10-29T09:34:45.511Z,8.82
2022-10-29T09:39:49.534Z,7.63
2022-10-29T09:44:57.157Z,7.30
2022-10-29T09:50:11.835Z,7.50
2022-10-29T09:55:22.139Z,7.30
2022-10-29T10:00:28.653Z,7.38
2022-10-29T10:05:33.232Z,6.72
2022-10-29T10:10:39.334Z,6.47
2022-10-29T10:15:52.149Z,7.20
2022-10-29T10:21:05.362Z,6.20
2022-10-29T10:26:32.699Z,6.68
2022-10-29T10:31:37.635Z,6.10
2022-10-29T10:36:46.970Z,7.15
2022-10-29T10:41:51.828Z,6.50
2022-10-29T10:46:58.288Z,6.15
2022-10-29T10:52:04.693Z,6.05
2022-10-29T10:57:25.043Z,5.93
2022-10-29T11:02:39.206Z,5.45
2022-10-29T11:07:48.080Z,5.50
2022-10-29T11:12:56.155Z,5.18
2022-10-29T11:18:08.171Z,5.13
2022-10-29T11:23:29.421Z,5.10
2022-10-29T11:28:39.857Z,4.28
2022-10-29T11:33:52.054Z,4.32
2022-10-29T11:39:03.580Z,5.05
2022-10-29T11:44:13.033Z,4.82
2022-10-29T11:49:31.587Z,4.38
2022-10-29T11:54:52.602Z,4.30
2022-10-29T12:00:13.903Z,4.28
2022-10-29T12:05:29.938Z,3.88
2022-10-29T12:10:45.159Z,3.80
2022-10-29T12:15:57.466Z,3.67
2022-10-29T12:21:11.032Z,3.65
2022-10-29T12:26:19.669Z,3.95
2022-10-29T12:31:30.013Z,3.63
2022-10-29T12:36:44.472Z,2.88
2022-10-29T12:41:51.302Z,3.15
2022-10-29T12:47:03.535Z,3.53
2022-10-29T12:52:14.857Z,3.58
2022-10-29T12:57:39.124Z,3.45
2022-10-29T13:02:46.247Z,3.45
2022-10-29T13:08:19.625Z,2.95
2022-10-29T13:13:48.341Z,3.78
2022-10-29T13:19:06.132Z,3.30
2022-10-29T13:24:18.264Z,3.78
2022-10-29T13:29:43.373Z,3.70
2022-10-29T13:34:57.788Z,4.10
2022-10-29T13:40:34.066Z,3.50
2022-10-29T13:45:40.622Z,4.10
2022-10-29T13:50:44.207Z,3.65
2022-10-29T13:55:47.866Z,3.25
2022-10-29T14:00:52.640Z,3.92
2022-10-29T14:06:01.636Z,3.75
2022-10-29T14:11:15.018Z,3.80
2022-10-29T14:16:20.681Z,3.70
2022-10-29T14:21:25.787Z,3.58
2022-10-29T14:26:30.664Z,4.13
2022-10-29T14:31:35.209Z,3.78
2022-10-29T14:36:43.326Z,3.65
2022-10-29T14:41:50.053Z,3.50
2022-10-29T14:47:02.160Z,3.55
2022-10-29T14:52:12.856Z,3.83
2022-10-29T14:57:19.425Z,3.92
2022-10-29T15:02:37.524Z,3.78
2022-10-29T15:07:41.940Z,4.55
2022-10-29T15:12:46.293Z,3.45
2022-10-29T15:17:54.297Z,4.55
2022-10-29T15:22:59.663Z,4.32
2022-10-29T15:28:03.398Z,4.00
2022-10-29T15:33:16.703Z,3.78
2022-10-29T15:39:04.106Z,3.85
2022-10-29T15:44:29.045Z,3.80
2022-10-29T15:49:33.680Z,4.60
2022-10-29T15:54:36.747Z,4.10
2022-10-29T15:59:41.152Z,4.15
2022-10-29T16:04:45.738Z,4.32
2022-10-29T16:09:51.577Z,4.85
2022-10-29T16:14:54.773Z,3.92
2022-10-29T16:19:59.244Z,4.68
2022-10-29T16:25:02.245Z,4.88
2022-10-29T16:30:06.071Z,4.50
2022-10-29T16:35:15.559Z,4.35
2022-10-29T16:40:19.205Z,4.07
2022-10-29T16:45:24.414Z,4.50
2022-10-29T16:50:34.264Z,4.07
2022-10-29T16:55:39.296Z,4.50
2022-10-29T17:00:42.761Z,4.57
2022-10-29T17:05:47.995Z,4.47
2022-10-29T17:10:51.342Z,4.15
2022-10-29T17:15:54.499Z,5.07
2022-10-29T17:21:01.324Z,4.15
2022-10-29T17:26:04.599Z,4.15
2022-10-29T17:31:08.534Z,3.65
2022-10-29T17:36:15.274Z,3.90
2022-10-29T17:41:18.550Z,4.63
2022-10-29T17:46:21.760Z,3.67
2022-10-29T17:51:26.439Z,4.43
2022-10-29T17:56:29.486Z,3.95
2022-10-29T18:01:32.675Z,3.95
2022-10-29T18:06:37.460Z,3.88
2022-10-29T18:11:40.459Z,4.22
2022-10-29T18:16:43.670Z,3.90
2022-10-29T18:21:48.157Z,4.18
2022-10-29T18:26:51.439Z,3.63
2022-10-29T18:31:54.431Z,3.90
2022-10-29T18:37:00.333Z,3.78
2022-10-29T18:42:09.559Z,3.85
2022-10-29T18:47:12.881Z,5.07
2022-10-29T18:52:17.668Z,5.03
2022-10-29T18:57:21.112Z,4.22
2022-10-29T19:02:24.604Z,5.32
2022-10-29T19:07:29.410Z,4.88
2022-10-29T19:12:33.152Z,4.45
2022-10-29T19:17:36.414Z,3.80
2022-10-29T19:22:40.963Z,4.53
2022-10-29T19:27:44.300Z,4.57
2022-10-29T19:32:48.108Z,3.85
2022-10-29T19:37:52.728Z,3.97
2022-10-29T19:42:56.993Z,4.00
2022-10-29T19:48:00.206Z,4.85
2022-10-29T19:53:05.576Z,4.57
2022-10-29T19:58:08.895Z,4.43
2022-10-29T20:03:13.111Z,4.90
2022-10-29T20:08:21.965Z,5.38
2022-10-29T20:13:25.830Z,4.75
2022-10-29T20:18:28.821Z,4.90
2022-10-29T20:23:33.446Z,5.82
2022-10-29T20:28:36.963Z,5.10
2022-10-29T20:33:40.273Z,5.15
2022-10-29T20:38:44.900Z,5.93
2022-10-29T20:43:53.056Z,5.28
2022-10-29T20:48:56.446Z,5.85
2022-10-29T20:54:01.050Z,5.30
2022-10-29T20:59:05.512Z,5.60
2022-10-29T21:04:08.733Z,5.40
2022-10-29T21:09:13.159Z,4.90
2022-10-29T21:14:16.139Z,5.05
2022-10-29T21:19:19.483Z,5.53
2022-10-29T21:24:24.025Z,5.60
2022-10-29T21:29:27.150Z,5.45
2022-10-29T21:34:30.197Z,5.25
2022-10-29T21:39:34.938Z,5.63
2022-10-29T21:44:38.174Z,6.15
2022-10-29T21:49:41.246Z,5.80
2022-10-29T21:54:45.738Z,6.18
2022-10-29T21:59:48.831Z,5.53
2022-10-29T22:04:51.778Z,5.80
2022-10-29T22:09:56.355Z,5.78
2022-10-29T22:15:04.140Z,5.80
2022-10-29T22:20:08.137Z,6.22
2022-10-29T22:25:12.476Z,6.45
2022-10-29T22:30:15.584Z,6.38
2022-10-29T22:35:18.824Z,6.18
2022-10-29T22:40:23.269Z,5.70
2022-10-29T22:45:26.262Z,6.30
2022-10-29T22:50:29.374Z,6.65
2022-10-29T22:55:33.908Z,6.20
2022-10-29T23:00:36.944Z,5.95
2022-10-29T23:05:39.930Z,6.10
2022-10-29T23:10:44.390Z,5.72
2022-10-29T23:15:48.097Z,6.15
2022-10-29T23:20:59.050Z,6.30
2022-10-29T23:26:04.206Z,6.50
2022-10-29T23:31:11.542Z,5.93
2022-10-29T23:36:15.832Z,6.63
2022-10-29T23:41:20.175Z,6.15
2022-10-29T23:46:23.330Z,5.88
2022-10-29T23:51:26.334Z,6.40
2022-10-29T23:56:30.640Z,5.15
